Airfield :
LOGIN :

Register | Disclaimer

   EN    FR    IT 

 










Legend :    VFR   Marginal VFR   IFR   Intensive IFR   Very Intensive IFR
Visi :
Ceiling :
>= 8 km
>= 3000ft
5 to 8 km
1000 to 3000 ft
1500m to 5 km
500 to 1000 ft
800 to 1500m
200 to 500 ft
< 800m
< 200 ft
Symbols :   Thunderstorms  Fog  Heavy snow  Heavy precipitations  Wind > 20 kt
SIGMETs :     Misc.  Thunderstorms  Icing  Turbulence  Mountain Waves  Volcanic Ashes






- Airport Elevation : 81 ft
- IATA code : SCS


EGPM - Scatsta

CURRENT METAR :
  • 170550Z 27009KT 9999 -DZ FEW004 BKN014 10/09 Q0997 BECMG SCT020

EXPIRED METARs :
  • 170520Z 27010KT 9999 -DZ FEW004 SCT013 BKN014 10/09 Q0997 BECMG SCT020
  • 170450Z AUTO 29011KT 8000 BKN003/// OVC013/// 10/09 Q0997
  • 170420Z AUTO 29010KT 9999 BKN002/// BKN010/// 10/10 Q0997 RERA REDZ
  • 170350Z AUTO 17010KT 140V210 1300 +RA SCT002/// BKN007/// OVC017/// 11/10 Q0997 REDZ
  • 170320Z AUTO 14012KT 3100 DZ BKN002/// OVC018/// 11/11 Q0996 RERA

TAF TAF EGPM
Valid from the 17 at 06:00 until the 17 at 15:00 UTC


170458Z 1706/1715 29010KT 9999 BKN003
BECMG 1706/1708 SCT020
PROB30
TEMPO 1706/1708 6000 -RADZ



MET'MAP, your aeronautical weather chart ! - Copyright ORBIFLY December 2007 - Disclaimer

ORBIFLY MET'MAP TEAM :

Programming & Development : Alexandra Zaïnal
Concept & Development : Baudouin d'Aumeries
Co-Development & Prog : Marc-Olivier Méhu
Technical & hardware support : Manuel Goepfert

Contact : metmap@orbifly.com




SOURCES & CREDITS :

   NOAA